createdAt,value
2022-09-18T00:02:00.532Z,101545.38
2022-09-18T00:04:28.384Z,101529.75
2022-09-18T00:06:55.893Z,101521.75
2022-09-18T00:09:23.918Z,101521.28
2022-09-18T00:11:51.434Z,101514.06
2022-09-18T00:14:21.437Z,101517.28
2022-09-18T00:16:49.195Z,101519.59
2022-09-18T00:19:17.079Z,101508.53
2022-09-18T00:21:45.327Z,101524.28
2022-09-18T00:24:13.234Z,101519.53
2022-09-18T00:26:41.005Z,101514.47
2022-09-18T00:29:08.523Z,101513.28
2022-09-18T00:31:37.979Z,101521.94
2022-09-18T00:34:07.658Z,101521.88
2022-09-18T00:36:35.644Z,101503.31
2022-09-18T00:39:03.751Z,101522.06
2022-09-18T00:41:32.455Z,101522.78
2022-09-18T00:44:14.853Z,101523.84
2022-09-18T00:46:45.324Z,101517.66
2022-09-18T00:49:15.680Z,101519.56
2022-09-18T00:51:44.706Z,101507.44
2022-09-18T00:54:15.374Z,101499.53
2022-09-18T00:56:44.402Z,101517.19
2022-09-18T00:59:13.598Z,101504.22
2022-09-18T01:01:41.176Z,101510.66
2022-09-18T01:04:12.066Z,101512.56
2022-09-18T01:06:43.476Z,101503.53
2022-09-18T01:09:27.949Z,101506.34
2022-09-18T01:11:59.077Z,101508.03
2022-09-18T01:14:31.349Z,101502.94
2022-09-18T01:17:03.668Z,101499.84
2022-09-18T01:19:50.086Z,101507.91
2022-09-18T01:22:24.813Z,101502.53
2022-09-18T01:24:59.840Z,101505.56
2022-09-18T01:27:31.717Z,101501.94
2022-09-18T01:30:03.364Z,101503.38
2022-09-18T01:32:33.160Z,101503.97
2022-09-18T01:35:10.166Z,101510.22
2022-09-18T01:37:49.672Z,101507.19
2022-09-18T01:40:21.192Z,101503.00
2022-09-18T01:42:50.363Z,101505.28
2022-09-18T01:45:21.990Z,101490.72
2022-09-18T01:47:54.269Z,101498.31
2022-09-18T01:50:22.653Z,101502.47
2022-09-18T01:52:54.729Z,101501.03
2022-09-18T01:55:25.048Z,101481.72
2022-09-18T01:57:54.608Z,101492.41
2022-09-18T02:00:24.547Z,101488.53
2022-09-18T02:02:55.145Z,101489.25
2022-09-18T02:05:28.335Z,101488.19
2022-09-18T02:08:02.326Z,101476.97
2022-09-18T02:10:31.958Z,101479.22
2022-09-18T02:13:01.073Z,101478.69
2022-09-18T02:15:35.834Z,101466.34
2022-09-18T02:18:13.454Z,101469.16
2022-09-18T02:20:43.123Z,101475.00
2022-09-18T02:23:11.384Z,101473.25
2022-09-18T02:25:41.686Z,101469.06
2022-09-18T02:28:10.275Z,101446.03
2022-09-18T02:30:39.904Z,101455.78
2022-09-18T02:33:22.282Z,101455.47
2022-09-18T02:35:54.303Z,101467.47
2022-09-18T02:38:26.715Z,101468.81
2022-09-18T02:41:00.443Z,101462.09
2022-09-18T02:43:37.179Z,101464.59
2022-09-18T02:46:13.283Z,101463.13
2022-09-18T02:48:53.722Z,101467.31
2022-09-18T02:51:24.017Z,101457.75
2022-09-18T02:53:56.100Z,101456.09
2022-09-18T02:56:28.708Z,101463.38
2022-09-18T02:58:57.239Z,101455.78
2022-09-18T03:01:28.417Z,101456.28
2022-09-18T03:04:02.570Z,101458.78
2022-09-18T03:06:39.997Z,101452.56
2022-09-18T03:09:07.733Z,101457.56
2022-09-18T03:11:37.069Z,101452.25
2022-09-18T03:14:04.582Z,101451.13
2022-09-18T03:16:33.597Z,101447.19
2022-09-18T03:19:01.451Z,101451.66
2022-09-18T03:21:29.213Z,101445.75
2022-09-18T03:23:57.017Z,101452.19
2022-09-18T03:26:29.748Z,101443.00
2022-09-18T03:28:57.479Z,101432.41
2022-09-18T03:31:26.119Z,101447.56
2022-09-18T03:33:55.175Z,101435.50
2022-09-18T03:36:23.348Z,101441.94
2022-09-18T03:38:52.682Z,101439.16
2022-09-18T03:41:20.245Z,101431.56
2022-09-18T03:43:47.746Z,101434.06
2022-09-18T03:46:15.338Z,101428.47
2022-09-18T03:48:43.022Z,101430.13
2022-09-18T03:51:11.926Z,101429.28
2022-09-18T03:53:39.419Z,101431.78
2022-09-18T03:56:18.869Z,101423.91
2022-09-18T03:59:18.731Z,101422.97
2022-09-18T04:02:12.393Z,101422.16
2022-09-18T04:05:15.467Z,101425.56
2022-09-18T04:08:03.030Z,101425.03
2022-09-18T04:10:49.210Z,101428.97
2022-09-18T04:13:16.864Z,101426.47
2022-09-18T04:15:45.275Z,101428.16
2022-09-18T04:18:12.860Z,101430.66
2022-09-18T04:20:40.430Z,101435.13
2022-09-18T04:23:11.506Z,101430.13
2022-09-18T04:25:39.611Z,101432.19
2022-09-18T04:28:07.290Z,101427.81
2022-09-18T04:30:39.843Z,101417.50
2022-09-18T04:33:08.001Z,101418.94
2022-09-18T04:35:35.740Z,101421.22
2022-09-18T04:38:03.357Z,101431.59
2022-09-18T04:40:32.558Z,101425.69
2022-09-18T04:43:01.124Z,101427.13
2022-09-18T04:45:29.607Z,101417.34
2022-09-18T04:47:59.117Z,101427.84
2022-09-18T04:50:27.496Z,101423.16
2022-09-18T04:53:10.205Z,101408.38
2022-09-18T04:55:39.430Z,101407.31
2022-09-18T04:58:10.123Z,101400.97
2022-09-18T05:00:39.126Z,101407.50
2022-09-18T05:03:07.118Z,101403.63
2022-09-18T05:05:37.425Z,101412.63
2022-09-18T05:08:06.463Z,101409.28
2022-09-18T05:10:34.073Z,101413.78
2022-09-18T05:13:06.954Z,101418.53
2022-09-18T05:15:39.368Z,101413.78
2022-09-18T05:18:11.522Z,101421.34
2022-09-18T05:20:39.666Z,101429.22
2022-09-18T05:23:08.835Z,101454.13
2022-09-18T05:25:37.611Z,101450.19
2022-09-18T05:28:06.834Z,101441.25
2022-09-18T05:30:43.183Z,101444.72
2022-09-18T05:33:11.553Z,101444.03
2022-09-18T05:35:42.192Z,101443.03
2022-09-18T05:38:11.510Z,101438.94
2022-09-18T05:40:43.422Z,101432.66
2022-09-18T05:43:12.402Z,101426.88
2022-09-18T05:45:40.077Z,101437.28
2022-09-18T05:48:16.528Z,101440.41
2022-09-18T05:50:45.360Z,101441.84
2022-09-18T05:53:16.944Z,101434.88
2022-09-18T05:55:55.880Z,101440.16
2022-09-18T05:58:24.741Z,101452.78
2022-09-18T06:00:57.746Z,101452.00
2022-09-18T06:03:32.769Z,101446.75
2022-09-18T06:06:01.618Z,101441.81
2022-09-18T06:08:29.148Z,101425.38
2022-09-18T06:10:56.668Z,101427.94
2022-09-18T06:13:25.735Z,101419.84
2022-09-18T06:15:54.354Z,101412.28
2022-09-18T06:18:32.824Z,101416.44
2022-09-18T06:21:02.218Z,101409.41
2022-09-18T06:23:31.852Z,101404.38
2022-09-18T06:26:15.088Z,101413.84
2022-09-18T06:28:44.445Z,101413.84
2022-09-18T06:31:12.171Z,101413.84
2022-09-18T06:34:05.859Z,101418.84
2022-09-18T06:36:33.433Z,101423.31
2022-09-18T06:39:19.989Z,101410.38
2022-09-18T06:41:50.669Z,101415.91
2022-09-18T06:44:45.522Z,101415.56
2022-09-18T06:47:13.206Z,101415.50
2022-09-18T06:49:44.705Z,101413.44
2022-09-18T06:52:12.229Z,101420.13
2022-09-18T06:54:40.893Z,101430.75
2022-09-18T06:57:09.135Z,101438.00
2022-09-18T06:59:38.274Z,101448.63
2022-09-18T07:02:17.274Z,101449.97
2022-09-18T07:05:00.642Z,101444.44
2022-09-18T07:07:28.408Z,101436.09
2022-09-18T07:09:58.022Z,101431.91
2022-09-18T07:12:36.608Z,101434.44
2022-09-18T07:15:08.636Z,101432.47
2022-09-18T07:17:38.707Z,101429.06
2022-09-18T07:20:10.062Z,101419.53
2022-09-18T07:22:44.916Z,101419.25
2022-09-18T07:25:14.853Z,101418.69
2022-09-18T07:27:44.558Z,101411.97
2022-09-18T07:30:13.590Z,101411.66
2022-09-18T07:32:42.854Z,101407.19
2022-09-18T07:35:15.480Z,101412.25
2022-09-18T07:37:43.547Z,101414.78
2022-09-18T07:40:16.456Z,101412.50
2022-09-18T07:43:04.066Z,101408.81
2022-09-18T07:45:32.060Z,101419.38
2022-09-18T07:48:03.895Z,101423.25
2022-09-18T07:50:34.374Z,101430.81
2022-09-18T07:53:05.358Z,101418.19
2022-09-18T07:55:37.438Z,101419.84
2022-09-18T07:58:06.251Z,101417.34
2022-09-18T08:00:52.929Z,101405.91
2022-09-18T08:03:25.306Z,101421.06
2022-09-18T08:06:23.549Z,101404.53
2022-09-18T08:09:01.354Z,101425.63
2022-09-18T08:11:48.346Z,101421.69
2022-09-18T08:14:34.801Z,101424.47
2022-09-18T08:17:20.948Z,101422.28
2022-09-18T08:20:12.411Z,101414.41
2022-09-18T08:22:44.997Z,101414.94
2022-09-18T08:25:13.580Z,101420.00
2022-09-18T08:27:44.159Z,101418.88
2022-09-18T08:30:13.457Z,101419.63
2022-09-18T08:32:42.275Z,101411.41
2022-09-18T08:35:13.021Z,101406.75
2022-09-18T08:37:47.992Z,101412.84
2022-09-18T08:40:57.948Z,101416.13
2022-09-18T08:43:41.105Z,101416.66
2022-09-18T08:46:10.082Z,101416.66
2022-09-18T08:48:39.558Z,101418.38
2022-09-18T08:51:19.487Z,101429.94
2022-09-18T08:53:51.287Z,101431.69
2022-09-18T08:56:47.409Z,101431.97
2022-09-18T08:59:34.556Z,101428.88
2022-09-18T09:02:13.730Z,101425.78
2022-09-18T09:04:41.886Z,101432.44
2022-09-18T09:07:17.050Z,101428.75
2022-09-18T09:09:53.056Z,101428.19
2022-09-18T09:12:26.332Z,101430.06
2022-09-18T09:15:07.456Z,101428.09
2022-09-18T09:17:39.680Z,101442.84
2022-09-18T09:20:20.505Z,101447.56
2022-09-18T09:22:53.797Z,101436.06
2022-09-18T09:25:24.598Z,101437.41
2022-09-18T09:28:16.309Z,101440.44
2022-09-18T09:31:01.632Z,101440.03
2022-09-18T09:34:00.474Z,101444.16
2022-09-18T09:36:56.565Z,101444.56
2022-09-18T09:39:28.721Z,101448.44
2022-09-18T09:41:58.831Z,101445.03
2022-09-18T09:44:31.506Z,101443.28
2022-09-18T09:47:04.107Z,101434.56
2022-09-18T09:49:35.077Z,101439.25
2022-09-18T09:52:09.425Z,101446.72
2022-09-18T09:54:41.705Z,101438.00
2022-09-18T09:57:18.075Z,101427.31
2022-09-18T09:59:52.567Z,101432.53
2022-09-18T10:02:37.312Z,101426.31
2022-09-18T10:05:13.880Z,101421.44
2022-09-18T10:07:46.223Z,101423.00
2022-09-18T10:10:18.557Z,101431.66
2022-09-18T10:12:52.006Z,101424.59
2022-09-18T10:15:21.367Z,101427.31
2022-09-18T10:17:50.628Z,101420.66
2022-09-18T10:20:19.809Z,101436.78
2022-09-18T10:22:47.701Z,101436.91
2022-09-18T10:25:22.188Z,101416.00
2022-09-18T10:27:49.934Z,101417.38
2022-09-18T10:30:18.489Z,101428.50
2022-09-18T10:32:52.924Z,101432.63
2022-09-18T10:35:34.146Z,101416.31
2022-09-18T10:38:02.552Z,101425.88
2022-09-18T10:40:40.172Z,101414.13
2022-09-18T10:43:17.673Z,101423.19
2022-09-18T10:45:52.551Z,101438.91
2022-09-18T10:48:29.067Z,101419.03
2022-09-18T10:50:58.175Z,101420.19
2022-09-18T10:53:33.776Z,101421.22
2022-09-18T10:56:16.825Z,101416.13
2022-09-18T10:58:44.962Z,101418.94
2022-09-18T11:01:13.436Z,101428.16
2022-09-18T11:03:47.769Z,101434.00
2022-09-18T11:06:25.502Z,101455.81
2022-09-18T11:08:57.056Z,101443.31
2022-09-18T11:11:27.922Z,101434.88
2022-09-18T11:13:58.515Z,101434.00
2022-09-18T11:16:30.981Z,101437.31
2022-09-18T11:19:08.216Z,101436.94
2022-09-18T11:21:45.271Z,101446.69
2022-09-18T11:24:20.691Z,101453.31
2022-09-18T11:26:54.353Z,101438.00
2022-09-18T11:29:28.249Z,101439.22
2022-09-18T11:31:58.696Z,101460.28
2022-09-18T11:34:31.283Z,101468.78
2022-09-18T11:37:00.850Z,101466.66
2022-09-18T11:39:30.899Z,101463.69
2022-09-18T11:42:03.090Z,101469.13
2022-09-18T11:44:32.715Z,101465.84
2022-09-18T11:47:20.388Z,101452.72
2022-09-18T11:49:50.555Z,101448.88
2022-09-18T11:52:21.362Z,101460.69
2022-09-18T11:55:02.191Z,101462.72
2022-09-18T11:57:33.515Z,101467.25
2022-09-18T12:00:09.339Z,101469.28
2022-09-18T12:02:47.736Z,101462.38
2022-09-18T12:05:20.312Z,101460.69
2022-09-18T12:07:58.670Z,101452.59
2022-09-18T12:10:32.983Z,101467.19
2022-09-18T12:13:12.972Z,101460.84
2022-09-18T12:15:42.431Z,101474.59
2022-09-18T12:18:13.078Z,101464.81
2022-09-18T12:20:42.525Z,101466.19
2022-09-18T12:23:14.293Z,101469.75
2022-09-18T12:25:44.751Z,101464.94
2022-09-18T12:28:41.890Z,101467.72
2022-09-18T12:31:15.385Z,101457.13
2022-09-18T12:33:48.345Z,101462.47
2022-09-18T12:36:32.154Z,101458.63
2022-09-18T12:39:12.797Z,101463.63
2022-09-18T12:41:48.262Z,101471.13
2022-09-18T12:44:29.999Z,101465.75
2022-09-18T12:47:06.151Z,101463.44
2022-09-18T12:49:41.457Z,101466.16
2022-09-18T12:52:15.270Z,101469.19
2022-09-18T12:54:51.201Z,101461.88
2022-09-18T12:57:29.662Z,101461.94
2022-09-18T13:00:02.022Z,101458.94
2022-09-18T13:02:40.181Z,101467.38
2022-09-18T13:05:09.596Z,101460.66
2022-09-18T13:07:39.775Z,101457.56
2022-09-18T13:10:12.293Z,101462.31
2022-09-18T13:12:41.959Z,101450.28
2022-09-18T13:15:17.156Z,101457.25
2022-09-18T13:17:48.680Z,101462.56
2022-09-18T13:20:18.546Z,101460.06
2022-09-18T13:22:50.893Z,101464.81
2022-09-18T13:25:27.020Z,101463.16
2022-09-18T13:27:55.177Z,101460.66
2022-09-18T13:30:28.900Z,101462.63
2022-09-18T13:32:57.804Z,101471.59
2022-09-18T13:35:26.672Z,101463.22
2022-09-18T13:38:11.323Z,101467.13
2022-09-18T13:40:40.034Z,101469.69
2022-09-18T13:43:31.690Z,101467.19
2022-09-18T13:46:06.630Z,101468.03
2022-09-18T13:48:36.089Z,101468.88
2022-09-18T13:51:05.151Z,101472.78
2022-09-18T13:53:34.724Z,101466.34
2022-09-18T13:56:02.850Z,101467.50
2022-09-18T13:58:35.379Z,101461.59
2022-09-18T14:01:05.556Z,101466.34
2022-09-18T14:03:34.321Z,101477.03
2022-09-18T14:06:21.831Z,101456.38
2022-09-18T14:08:49.371Z,101472.97
2022-09-18T14:11:24.108Z,101478.31
2022-09-18T14:13:54.242Z,101484.22
2022-09-18T14:16:30.753Z,101487.38
2022-09-18T14:19:01.078Z,101491.06
2022-09-18T14:21:31.849Z,101486.34
2022-09-18T14:24:08.188Z,101492.25
2022-09-18T14:26:54.306Z,101480.50
2022-09-18T14:29:21.881Z,101477.72
2022-09-18T14:31:51.652Z,101473.25
2022-09-18T14:34:22.270Z,101485.28
2022-09-18T14:36:51.054Z,101482.47
2022-09-18T14:39:24.830Z,101472.94
2022-09-18T14:41:53.339Z,101483.84
2022-09-18T14:44:20.876Z,101479.91
2022-09-18T14:46:57.254Z,101468.19
2022-09-18T14:49:28.679Z,101464.84
2022-09-18T14:52:04.045Z,101451.16
2022-09-18T14:54:32.400Z,101450.31
2022-09-18T14:57:02.114Z,101449.19
2022-09-18T14:59:30.161Z,101443.00
2022-09-18T15:02:14.199Z,101436.81
2022-09-18T15:04:42.632Z,101432.53
2022-09-18T15:07:17.390Z,101429.66
2022-09-18T15:09:46.442Z,101446.16
2022-09-18T15:12:16.017Z,101441.69
2022-09-18T15:14:47.494Z,101438.84
2022-09-18T15:17:21.378Z,101446.34
2022-09-18T15:19:55.947Z,101448.03
2022-09-18T15:22:23.720Z,101451.72
2022-09-18T15:24:51.262Z,101447.25
2022-09-18T15:27:19.303Z,101445.28
2022-09-18T15:29:49.012Z,101448.91
2022-09-18T15:32:22.762Z,101455.06
2022-09-18T15:34:52.572Z,101453.88
2022-09-18T15:37:21.930Z,101466.66
2022-09-18T15:39:52.947Z,101455.69
2022-09-18T15:42:23.388Z,101468.28
2022-09-18T15:45:08.875Z,101467.44
2022-09-18T15:47:38.372Z,101461.06
2022-09-18T15:50:20.732Z,101468.63
2022-09-18T15:53:02.237Z,101463.81
2022-09-18T15:55:31.794Z,101472.69
2022-09-18T15:58:00.387Z,101473.53
2022-09-18T16:00:28.855Z,101474.91
2022-09-18T16:02:57.940Z,101470.63
2022-09-18T16:05:26.136Z,101494.16
2022-09-18T16:07:57.406Z,101482.97
2022-09-18T16:10:44.062Z,101478.75
2022-09-18T16:13:29.616Z,101476.78
2022-09-18T16:16:12.278Z,101483.16
2022-09-18T16:18:49.099Z,101490.91
2022-09-18T16:21:16.649Z,101488.84
2022-09-18T16:23:50.488Z,101486.81
2022-09-18T16:26:24.473Z,101484.56
2022-09-18T16:28:53.802Z,101496.00
2022-09-18T16:31:22.832Z,101487.59
2022-09-18T16:33:52.426Z,101493.19
2022-09-18T16:36:25.648Z,101487.88
2022-09-18T16:38:54.544Z,101496.91
2022-09-18T16:41:22.470Z,101487.94
2022-09-18T16:43:50.773Z,101491.88
2022-09-18T16:46:20.678Z,101498.63
2022-09-18T16:48:48.285Z,101504.81
2022-09-18T16:51:15.760Z,101508.84
2022-09-18T16:53:43.277Z,101513.91
2022-09-18T16:56:15.307Z,101532.16
2022-09-18T16:58:43.189Z,101524.63
2022-09-18T17:01:10.785Z,101521.88
2022-09-18T17:03:38.369Z,101506.59
2022-09-18T17:06:06.098Z,101516.16
2022-09-18T17:08:33.629Z,101519.84
2022-09-18T17:11:01.178Z,101520.16
2022-09-18T17:13:30.058Z,101519.94
2022-09-18T17:16:01.188Z,101520.22
2022-09-18T17:18:29.498Z,101530.06
2022-09-18T17:20:56.957Z,101530.06
2022-09-18T17:23:24.498Z,101523.31
2022-09-18T17:25:52.387Z,101532.47
2022-09-18T17:28:19.931Z,101541.13
2022-09-18T17:30:50.779Z,101541.66
2022-09-18T17:33:20.465Z,101539.69
2022-09-18T17:35:48.347Z,101545.00
2022-09-18T17:38:15.965Z,101545.31
2022-09-18T17:40:43.454Z,101552.88
2022-09-18T17:43:11.035Z,101553.16
2022-09-18T17:45:38.469Z,101562.97
2022-09-18T17:48:07.345Z,101564.66
2022-09-18T17:50:34.971Z,101553.44
2022-09-18T17:53:02.506Z,101565.78
2022-09-18T17:55:30.037Z,101569.72
2022-09-18T17:57:57.555Z,101577.28
2022-09-18T18:00:25.424Z,101573.34
2022-09-18T18:02:53.033Z,101566.06
2022-09-18T18:05:22.043Z,101562.44
2022-09-18T18:07:49.531Z,101563.59
2022-09-18T18:10:17.067Z,101570.03
2022-09-18T18:12:45.403Z,101572.00
2022-09-18T18:15:12.948Z,101567.53
2022-09-18T18:17:42.952Z,101575.94
2022-09-18T18:20:10.783Z,101581.53
2022-09-18T18:22:39.624Z,101578.72
2022-09-18T18:25:08.448Z,101571.47
2022-09-18T18:27:35.978Z,101580.91
2022-09-18T18:30:03.604Z,101585.91
2022-09-18T18:32:34.532Z,101592.06
2022-09-18T18:35:02.053Z,101593.75
2022-09-18T18:37:29.544Z,101595.94
2022-09-18T18:39:58.583Z,101597.91
2022-09-18T18:42:28.214Z,101609.94
2022-09-18T18:44:55.760Z,101610.53
2022-09-18T18:47:23.303Z,101616.38
2022-09-18T18:49:50.783Z,101623.06
2022-09-18T18:52:18.657Z,101625.88
2022-09-18T18:54:46.233Z,101631.47
2022-09-18T18:57:15.169Z,101627.84
2022-09-18T18:59:43.840Z,101639.03
2022-09-18T19:02:11.573Z,101633.72
2022-09-18T19:04:40.439Z,101634.56
2022-09-18T19:07:08.154Z,101634.56
2022-09-18T19:09:35.668Z,101627.31
2022-09-18T19:12:04.096Z,101641.31
2022-09-18T19:14:34.170Z,101637.66
2022-09-18T19:17:01.812Z,101636.53
2022-09-18T19:19:29.667Z,101640.47
2022-09-18T19:21:59.339Z,101642.13
2022-09-18T19:24:27.523Z,101651.91
2022-09-18T19:26:55.128Z,101660.25
2022-09-18T19:29:22.841Z,101658.53
2022-09-18T19:31:51.787Z,101664.38
2022-09-18T19:34:20.193Z,101667.44
2022-09-18T19:36:50.165Z,101670.50
2022-09-18T19:39:24.529Z,101672.47
2022-09-18T19:41:55.269Z,101671.63
2022-09-18T19:44:26.539Z,101673.28
2022-09-18T19:46:56.682Z,101678.06
2022-09-18T19:49:26.377Z,101678.66
2022-09-18T19:51:53.914Z,101678.94
2022-09-18T19:54:21.388Z,101679.78
2022-09-18T19:56:49.439Z,101681.75
2022-09-18T19:59:17.653Z,101673.59
2022-09-18T20:01:45.628Z,101680.88
2022-09-18T20:04:14.595Z,101684.25
2022-09-18T20:06:42.434Z,101697.13
2022-09-18T20:09:10.488Z,101691.22
2022-09-18T20:11:38.023Z,101690.66
2022-09-18T20:14:05.561Z,101702.41
2022-09-18T20:16:33.124Z,101699.28
2022-09-18T20:19:01.121Z,101699.28
2022-09-18T20:21:30.707Z,101697.09
2022-09-18T20:23:59.112Z,101704.66
2022-09-18T20:26:26.891Z,101708.00
2022-09-18T20:28:54.333Z,101709.06
2022-09-18T20:31:23.716Z,101700.34
2022-09-18T20:33:54.603Z,101714.63
2022-09-18T20:36:22.102Z,101715.16
2022-09-18T20:38:51.511Z,101718.81
2022-09-18T20:41:21.037Z,101717.97
2022-09-18T20:43:53.105Z,101725.53
2022-09-18T20:46:20.948Z,101733.09
2022-09-18T20:48:52.762Z,101725.53
2022-09-18T20:51:22.379Z,101724.13
2022-09-18T20:53:51.806Z,101722.69
2022-09-18T20:56:21.116Z,101726.91
2022-09-18T20:58:51.539Z,101730.75
2022-09-18T21:01:20.287Z,101731.84
2022-09-18T21:03:48.799Z,101737.72
2022-09-18T21:06:22.929Z,101746.38
2022-09-18T21:08:53.614Z,101743.56
2022-09-18T21:11:23.181Z,101745.53
2022-09-18T21:13:52.889Z,101743.84
2022-09-18T21:16:22.046Z,101746.94
2022-09-18T21:18:50.084Z,101749.75
2022-09-18T21:21:18.033Z,101753.16
2022-09-18T21:23:53.256Z,101752.91
2022-09-18T21:26:22.578Z,101752.06
2022-09-18T21:28:50.376Z,101754.31
2022-09-18T21:31:18.169Z,101749.53
2022-09-18T21:33:45.724Z,101757.66
2022-09-18T21:36:13.259Z,101752.91
2022-09-18T21:38:42.104Z,101763.25
2022-09-18T21:41:10.451Z,101765.19
2022-09-18T21:43:39.389Z,101757.31
2022-09-18T21:46:07.603Z,101759.59
2022-09-18T21:48:35.564Z,101755.66
2022-09-18T21:51:03.943Z,101760.44
2022-09-18T21:53:31.732Z,101750.88
2022-09-18T21:56:02.535Z,101755.66
2022-09-18T21:58:31.044Z,101767.69
2022-09-18T22:01:00.222Z,101754.53
2022-09-18T22:03:27.738Z,101762.34
2022-09-18T22:05:55.245Z,101762.34
2022-09-18T22:08:22.748Z,101767.13
2022-09-18T22:10:50.596Z,101766.28
2022-09-18T22:13:18.085Z,101771.88
2022-09-18T22:15:45.581Z,101769.91
2022-09-18T22:18:14.455Z,101769.91
2022-09-18T22:20:41.992Z,101760.69
2022-09-18T22:23:09.481Z,101780.84
2022-09-18T22:25:36.975Z,101772.13
2022-09-18T22:28:05.007Z,101772.69
2022-09-18T22:30:32.788Z,101761.47
2022-09-18T22:33:00.246Z,101774.94
2022-09-18T22:35:29.089Z,101769.91
2022-09-18T22:37:56.983Z,101776.66
2022-09-18T22:40:24.539Z,101785.34
2022-09-18T22:42:52.060Z,101784.28
2022-09-18T22:45:19.568Z,101791.00
2022-09-18T22:47:47.067Z,101787.38
2022-09-18T22:50:14.688Z,101786.53
2022-09-18T22:52:43.603Z,101780.63
2022-09-18T22:55:11.126Z,101788.19
2022-09-18T22:57:38.634Z,101800.25
2022-09-18T23:00:06.755Z,101796.31
2022-09-18T23:02:34.353Z,101799.13
2022-09-18T23:05:02.318Z,101806.94
2022-09-18T23:07:29.819Z,101800.22
2022-09-18T23:09:58.628Z,101796.00
2022-09-18T23:12:26.203Z,101802.44
2022-09-18T23:14:53.703Z,101804.94
2022-09-18T23:17:21.552Z,101805.47
2022-09-18T23:19:49.101Z,101800.94
2022-09-18T23:22:16.597Z,101800.34
2022-09-18T23:24:44.072Z,101796.97
2022-09-18T23:27:13.389Z,101815.16
2022-09-18T23:29:41.110Z,101800.00
2022-09-18T23:32:08.655Z,101804.50
2022-09-18T23:34:36.293Z,101801.41
2022-09-18T23:37:03.897Z,101794.66
2022-09-18T23:39:32.369Z,101801.09
2022-09-18T23:42:01.388Z,101802.22
2022-09-18T23:44:31.184Z,101818.50
2022-09-18T23:46:59.362Z,101805.91
2022-09-18T23:49:26.874Z,101812.09
2022-09-18T23:51:54.888Z,101807.09
2022-09-18T23:54:23.472Z,101809.34
2022-09-18T23:56:51.189Z,101809.66
2022-09-18T23:59:22.585Z,101808.00
